やるねーーーーーPart2♪

LUXURY FLIGHT

080-7560-1817

羽田空港本店:東京都大田区羽田空港3-3-2
第1旅客ターミナル5階
営業時間:10:00~20:00 定休日:年中無休
電話番号:080-7560-1817

セントレア店:愛知県常滑市セントレア1-1
FLIGHT OF DREAMS FLIGHT PARK
営業時間:10:00~20:00 定休日:年中無休
電話番号:080-4945-5666

lv

やるねーーーーーPart2♪

STAFF BLOG

2019/09/08 やるねーーーーーPart2♪

おはざす!!!

 

本日のセントレアのMETARは…

 

RJGG 080100Z 32009KT 9999 FEW015 29/24 Q1011 NOSIG

 

 

さてさてさて、本日は、前回も来てくれたスーパーキッズのNさまの「PFD]をまたまたご紹介!!!

 

最近パイロット願望にも目覚めたらしく

 

2学期からも野球に勉強にと励まれているそうです

 

 

%e7%84%a1%e9%a1%8c

 

相変わらずのビッタビタの240KT/6000FT

 

 

相変わらず凄いです!!!!

 

私も負けないように練習しないと。。。

 

次回は旋回or高度変更もやっていきましょうね

 

この度もご来店誠にありがとうございました

 

 

「感謝」

TOP